createdAt,value
2023-01-22T00:00:10.056Z,99652.69
2023-01-22T00:02:37.140Z,99688.41
2023-01-22T00:05:05.460Z,99676.50
2023-01-22T00:07:32.385Z,99676.50
2023-01-22T00:10:00.056Z,99671.38
2023-01-22T00:12:27.426Z,99663.72
2023-01-22T00:14:54.280Z,99665.44
2023-01-22T00:17:21.112Z,99662.88
2023-01-22T00:19:47.911Z,99668.81
2023-01-22T00:22:14.849Z,99668.81
2023-01-22T00:24:41.787Z,99648.41
2023-01-22T00:27:08.731Z,99663.72
2023-01-22T00:29:35.522Z,99657.75
2023-01-22T00:32:02.904Z,99662.00
2023-01-22T00:34:30.023Z,99639.91
2023-01-22T00:36:56.950Z,99647.56
2023-01-22T00:39:23.880Z,99653.50
2023-01-22T00:41:50.783Z,99651.78
2023-01-22T00:44:17.523Z,99642.47
2023-01-22T00:46:44.434Z,99656.06
2023-01-22T00:49:12.469Z,99647.50
2023-01-22T00:51:39.768Z,99648.38
2023-01-22T00:54:08.734Z,99660.28
2023-01-22T00:56:35.517Z,99628.00
2023-01-22T00:59:03.146Z,99657.75
2023-01-22T01:01:29.988Z,99659.44
2023-01-22T01:03:56.825Z,99639.88
2023-01-22T01:06:23.687Z,99653.47
2023-01-22T01:08:50.784Z,99661.13
2023-01-22T01:11:23.635Z,99651.78
2023-01-22T01:13:52.031Z,99663.69
2023-01-22T01:16:31.779Z,99663.69
2023-01-22T01:19:05.347Z,99663.69
2023-01-22T01:21:32.891Z,99616.06
2023-01-22T01:24:00.291Z,99660.31
2023-01-22T01:26:27.767Z,99650.06
2023-01-22T01:28:54.610Z,99648.38
2023-01-22T01:31:24.279Z,99625.44
2023-01-22T01:33:51.128Z,99661.13
2023-01-22T01:36:40.364Z,99653.44
2023-01-22T01:39:11.426Z,99651.78
2023-01-22T01:41:38.286Z,99652.66
2023-01-22T01:44:27.254Z,99631.41
2023-01-22T01:47:24.724Z,99625.44
2023-01-22T01:49:53.410Z,99649.22
2023-01-22T01:52:21.104Z,99646.69
2023-01-22T01:54:52.467Z,99649.19
2023-01-22T01:57:25.269Z,99648.38
2023-01-22T01:59:52.892Z,99647.50
2023-01-22T02:02:20.649Z,99646.63
2023-01-22T02:04:49.563Z,99632.19
2023-01-22T02:07:16.924Z,99639.84
2023-01-22T02:09:43.871Z,99625.38
2023-01-22T02:12:10.679Z,99638.13
2023-01-22T02:14:43.205Z,99632.13
2023-01-22T02:17:15.313Z,99641.50
2023-01-22T02:19:43.742Z,99622.78
2023-01-22T02:22:21.939Z,99637.19
2023-01-22T02:24:49.547Z,99628.75
2023-01-22T02:27:16.390Z,99636.38
2023-01-22T02:29:43.215Z,99641.50
2023-01-22T02:32:10.159Z,99614.28
2023-01-22T02:34:37.049Z,99636.34
2023-01-22T02:37:04.297Z,99634.63
2023-01-22T02:39:31.128Z,99627.00
2023-01-22T02:41:58.715Z,99632.06
2023-01-22T02:44:25.501Z,99639.72
2023-01-22T02:46:52.367Z,99645.72
2023-01-22T02:49:19.234Z,99650.00
2023-01-22T02:51:46.053Z,99645.69
2023-01-22T02:54:12.951Z,99636.31
2023-01-22T02:56:39.844Z,99639.78
2023-01-22T02:59:06.927Z,99629.59
2023-01-22T03:01:33.741Z,99632.13
2023-01-22T03:04:22.176Z,99638.09
2023-01-22T03:06:49.030Z,99627.91
2023-01-22T03:09:17.677Z,99635.53
2023-01-22T03:11:46.900Z,99632.16
2023-01-22T03:14:32.525Z,99600.72
2023-01-22T03:17:19.085Z,99622.81
2023-01-22T03:20:04.579Z,99620.22
2023-01-22T03:22:31.447Z,99627.06
2023-01-22T03:25:00.416Z,99615.19
2023-01-22T03:27:30.804Z,99633.88
2023-01-22T03:29:58.332Z,99624.53
2023-01-22T03:32:25.492Z,99604.13
2023-01-22T03:34:53.625Z,99622.84
2023-01-22T03:37:20.586Z,99629.63
2023-01-22T03:39:47.921Z,99625.38
2023-01-22T03:42:14.785Z,99617.72
2023-01-22T03:44:41.567Z,99628.75
2023-01-22T03:47:08.447Z,99627.94
2023-01-22T03:49:35.266Z,99627.91
2023-01-22T03:52:02.120Z,99628.78
2023-01-22T03:54:28.935Z,99631.31
2023-01-22T03:56:55.792Z,99635.59
2023-01-22T03:59:22.604Z,99630.47
2023-01-22T04:01:50.799Z,99624.50
2023-01-22T04:04:17.681Z,99631.31
2023-01-22T04:06:44.572Z,99637.22
2023-01-22T04:09:11.345Z,99637.28
2023-01-22T04:11:38.212Z,99640.69
2023-01-22T04:14:05.013Z,99624.56
2023-01-22T04:16:31.935Z,99643.25
2023-01-22T04:18:58.846Z,99642.34
2023-01-22T04:21:25.614Z,99644.06
2023-01-22T04:23:52.510Z,99644.88
2023-01-22T04:26:19.362Z,99604.91
2023-01-22T04:28:46.198Z,99642.28
2023-01-22T04:31:13.083Z,99638.91
2023-01-22T04:33:39.985Z,99617.66
2023-01-22T04:36:06.844Z,99646.56
2023-01-22T04:38:33.587Z,99641.44
2023-01-22T04:41:00.352Z,99598.09
2023-01-22T04:43:27.133Z,99648.19
2023-01-22T04:45:54.017Z,99649.91
2023-01-22T04:48:20.824Z,99643.97
2023-01-22T04:50:47.736Z,99652.47
2023-01-22T04:53:14.775Z,99649.03
2023-01-22T04:55:42.283Z,99649.88
2023-01-22T04:58:09.470Z,99644.78
2023-01-22T05:00:36.837Z,99653.28
2023-01-22T05:03:04.758Z,99648.16
2023-01-22T05:05:33.286Z,99660.06
2023-01-22T05:08:00.672Z,99662.63
2023-01-22T05:10:27.725Z,99658.34
2023-01-22T05:12:54.980Z,99639.69
2023-01-22T05:15:24.782Z,99666.03
2023-01-22T05:17:53.073Z,99672.84
2023-01-22T05:20:21.305Z,99677.09
2023-01-22T05:22:48.968Z,99677.91
2023-01-22T05:25:15.867Z,99680.47
2023-01-22T05:27:42.678Z,99674.53
2023-01-22T05:30:11.344Z,99683.03
2023-01-22T05:32:38.192Z,99685.56
2023-01-22T05:35:06.337Z,99687.31
2023-01-22T05:37:33.303Z,99688.97
2023-01-22T05:40:00.131Z,99692.38
2023-01-22T05:42:27.002Z,99689.84
2023-01-22T05:44:53.758Z,99696.63
2023-01-22T05:47:20.577Z,99694.97
2023-01-22T05:49:47.377Z,99692.38
2023-01-22T05:52:14.244Z,99695.78
2023-01-22T05:54:41.065Z,99700.91
2023-01-22T05:57:08.547Z,99695.81
2023-01-22T05:59:35.595Z,99697.47
2023-01-22T06:02:02.864Z,99705.13
2023-01-22T06:04:29.665Z,99671.09
2023-01-22T06:06:56.615Z,99706.84
2023-01-22T06:09:24.145Z,99703.44
2023-01-22T06:11:51.223Z,99700.00
2023-01-22T06:14:18.287Z,99701.75
2023-01-22T06:16:45.120Z,99712.81
2023-01-22T06:19:12.733Z,99711.09
2023-01-22T06:21:40.663Z,99713.66
2023-01-22T06:24:07.685Z,99715.38
2023-01-22T06:26:34.550Z,99723.03
2023-01-22T06:29:02.470Z,99716.22
2023-01-22T06:31:29.634Z,99702.66
2023-01-22T06:33:56.609Z,99712.81
2023-01-22T06:36:23.592Z,99727.28
2023-01-22T06:38:50.566Z,99721.31
2023-01-22T06:41:17.372Z,99730.72
2023-01-22T06:43:44.184Z,99723.91
2023-01-22T06:46:11.060Z,99719.66
2023-01-22T06:48:38.023Z,99738.38
2023-01-22T06:51:05.093Z,99738.38
2023-01-22T06:53:31.942Z,99728.19
2023-01-22T06:56:02.282Z,99739.22
2023-01-22T06:58:29.251Z,99743.50
2023-01-22T07:01:01.287Z,99751.16
2023-01-22T07:03:28.242Z,99747.75
2023-01-22T07:06:00.802Z,99755.41
2023-01-22T07:08:29.654Z,99750.31
2023-01-22T07:10:56.474Z,99760.53
2023-01-22T07:13:23.390Z,99738.41
2023-01-22T07:15:50.417Z,99754.56
2023-01-22T07:18:19.893Z,99764.78
2023-01-22T07:20:47.293Z,99751.19
2023-01-22T07:23:14.278Z,99762.25
2023-01-22T07:25:41.335Z,99746.09
2023-01-22T07:28:08.433Z,99766.50
2023-01-22T07:30:35.330Z,99769.91
2023-01-22T07:33:03.349Z,99739.31
2023-01-22T07:35:30.846Z,99771.66
2023-01-22T07:37:59.830Z,99737.66
2023-01-22T07:40:27.238Z,99764.84
2023-01-22T07:42:55.612Z,99765.66
2023-01-22T07:45:26.945Z,99768.25
2023-01-22T07:47:57.266Z,99763.13
2023-01-22T07:50:27.525Z,99758.00
2023-01-22T07:52:54.709Z,99777.56
2023-01-22T07:55:22.038Z,99776.72
2023-01-22T07:57:48.846Z,99753.78
2023-01-22T08:00:16.549Z,99765.69
2023-01-22T08:02:43.783Z,99778.44
2023-01-22T08:05:14.233Z,99779.31
2023-01-22T08:07:41.149Z,99761.47
2023-01-22T08:10:09.631Z,99753.84
2023-01-22T08:12:38.404Z,99787.00
2023-01-22T08:15:05.984Z,99782.72
2023-01-22T08:17:32.791Z,99786.16
2023-01-22T08:19:59.552Z,99797.28
2023-01-22T08:22:26.339Z,99798.09
2023-01-22T08:24:54.087Z,99804.94
2023-01-22T08:27:22.100Z,99803.19
2023-01-22T08:29:49.907Z,99801.47
2023-01-22T08:32:18.924Z,99804.88
2023-01-22T08:34:45.859Z,99745.28
2023-01-22T08:37:13.760Z,99805.69
2023-01-22T08:39:40.605Z,99810.81
2023-01-22T08:42:07.443Z,99815.06
2023-01-22T08:44:34.175Z,99804.84
2023-01-22T08:47:01.053Z,99810.81
2023-01-22T08:49:30.415Z,99799.75
2023-01-22T08:51:57.760Z,99809.97
2023-01-22T08:54:26.173Z,99814.25
2023-01-22T08:56:53.851Z,99803.19
2023-01-22T08:59:20.645Z,99808.25
2023-01-22T09:01:47.593Z,99815.09
2023-01-22T09:04:14.446Z,99815.97
2023-01-22T09:06:41.333Z,99805.75
2023-01-22T09:09:08.147Z,99814.25
2023-01-22T09:11:35.364Z,99805.75
2023-01-22T09:14:02.630Z,99813.41
2023-01-22T09:16:32.781Z,99793.00
2023-01-22T09:18:59.680Z,99812.59
2023-01-22T09:21:26.559Z,99812.59
2023-01-22T09:23:53.728Z,99812.59
2023-01-22T09:26:21.372Z,99815.16
2023-01-22T09:28:48.201Z,99809.16
2023-01-22T09:31:15.902Z,99822.78
2023-01-22T09:33:43.086Z,99815.16
2023-01-22T09:36:16.325Z,99827.06
2023-01-22T09:38:43.743Z,99804.09
2023-01-22T09:41:26.312Z,99827.94
2023-01-22T09:44:24.506Z,99824.50
2023-01-22T09:47:05.894Z,99832.16
2023-01-22T09:49:47.544Z,99833.84
2023-01-22T09:52:14.411Z,99832.13
2023-01-22T09:54:42.139Z,99830.44
2023-01-22T09:57:29.881Z,99835.53
2023-01-22T09:59:58.224Z,99842.34
2023-01-22T10:02:42.936Z,99848.34
2023-01-22T10:05:36.091Z,99855.13
2023-01-22T10:08:23.142Z,99861.09
2023-01-22T10:10:51.986Z,99852.63
2023-01-22T10:13:32.816Z,99866.25
2023-01-22T10:16:00.121Z,99867.91
2023-01-22T10:18:53.405Z,99832.16
2023-01-22T10:21:34.196Z,99862.78
2023-01-22T10:24:01.003Z,99854.25
2023-01-22T10:26:54.332Z,99856.75
2023-01-22T10:29:33.650Z,99857.63
2023-01-22T10:32:06.019Z,99857.63
2023-01-22T10:34:36.223Z,99861.03
2023-01-22T10:37:14.733Z,99867.84
2023-01-22T10:39:46.532Z,99848.25
2023-01-22T10:42:17.979Z,99854.22
2023-01-22T10:44:45.128Z,99847.47
2023-01-22T10:47:27.118Z,99859.38
2023-01-22T10:50:07.455Z,99867.91
2023-01-22T10:52:50.881Z,99861.06
2023-01-22T10:55:37.746Z,99874.72
2023-01-22T10:58:08.103Z,99855.13
2023-01-22T11:00:50.452Z,99874.72
2023-01-22T11:03:24.337Z,99869.59
2023-01-22T11:06:04.027Z,99864.50
2023-01-22T11:08:50.678Z,99861.97
2023-01-22T11:11:24.763Z,99860.22
2023-01-22T11:14:11.968Z,99855.09
2023-01-22T11:16:40.837Z,99856.75
2023-01-22T11:19:21.701Z,99849.09
2023-01-22T11:21:57.505Z,99846.53
2023-01-22T11:24:38.620Z,99859.28
2023-01-22T11:27:14.464Z,99864.41
2023-01-22T11:30:07.350Z,99866.13
2023-01-22T11:33:21.539Z,99849.13
2023-01-22T11:36:04.962Z,99851.66
2023-01-22T11:38:57.176Z,99866.97
2023-01-22T11:42:15.509Z,99866.91
2023-01-22T11:45:21.898Z,99866.06
2023-01-22T11:48:32.228Z,99859.22
2023-01-22T11:51:13.342Z,99813.28
2023-01-22T11:54:03.966Z,99852.34
2023-01-22T11:57:15.960Z,99851.50
2023-01-22T12:00:23.248Z,99843.03
2023-01-22T12:03:07.982Z,99850.69
2023-01-22T12:06:40.815Z,99844.78
2023-01-22T12:09:41.420Z,99840.47
2023-01-22T12:12:28.171Z,99842.16
2023-01-22T12:15:24.990Z,99840.47
2023-01-22T12:18:27.605Z,99837.91
2023-01-22T12:21:31.720Z,99846.44
2023-01-22T12:24:13.784Z,99822.59
2023-01-22T12:26:56.812Z,99844.75
2023-01-22T12:29:49.817Z,99847.25
2023-01-22T12:32:19.059Z,99846.38
2023-01-22T12:35:01.319Z,99827.69
2023-01-22T12:37:42.987Z,99848.94
2023-01-22T12:40:25.028Z,99854.09
2023-01-22T12:43:06.665Z,99841.31
2023-01-22T12:45:52.133Z,99854.09
2023-01-22T12:48:51.127Z,99853.22
2023-01-22T12:51:51.739Z,99855.78
2023-01-22T12:54:27.888Z,99853.22
2023-01-22T12:57:23.079Z,99854.03
2023-01-22T12:59:56.521Z,99848.94
2023-01-22T13:02:30.421Z,99855.78
2023-01-22T13:05:11.156Z,99854.06
2023-01-22T13:07:41.015Z,99865.13
2023-01-22T13:10:20.717Z,99854.88
2023-01-22T13:12:51.321Z,99865.97
2023-01-22T13:15:37.113Z,99860.84
2023-01-22T13:18:19.497Z,99848.88
2023-01-22T13:21:09.098Z,99856.56
2023-01-22T13:23:42.134Z,99858.22
2023-01-22T13:26:24.351Z,99847.97
2023-01-22T13:28:51.413Z,99860.81
2023-01-22T13:31:18.345Z,99858.25
2023-01-22T13:34:01.134Z,99847.25
2023-01-22T13:36:28.365Z,99842.97
2023-01-22T13:38:59.640Z,99844.63
2023-01-22T13:41:34.994Z,99866.75
2023-01-22T13:44:04.277Z,99860.78
2023-01-22T13:46:31.668Z,99865.88
2023-01-22T13:49:12.183Z,99877.81
2023-01-22T13:51:40.591Z,99868.44
2023-01-22T13:54:08.214Z,99874.38
2023-01-22T13:56:35.138Z,99872.69
2023-01-22T13:59:20.374Z,99875.22
2023-01-22T14:01:48.247Z,99871.84
2023-01-22T14:04:39.086Z,99873.56
2023-01-22T14:07:06.503Z,99876.13
2023-01-22T14:09:38.978Z,99857.47
2023-01-22T14:12:19.496Z,99876.16
2023-01-22T14:14:46.715Z,99876.13
2023-01-22T14:17:28.723Z,99878.69
2023-01-22T14:19:56.965Z,99881.22
2023-01-22T14:22:24.647Z,99877.78
2023-01-22T14:24:52.702Z,99883.75
2023-01-22T14:27:47.348Z,99886.28
2023-01-22T14:30:17.980Z,99887.22
2023-01-22T14:32:45.769Z,99888.06
2023-01-22T14:35:18.272Z,99888.94
2023-01-22T14:37:45.813Z,99899.19
2023-01-22T14:40:15.146Z,99886.44
2023-01-22T14:42:42.053Z,99898.34
2023-01-22T14:45:10.241Z,99894.97
2023-01-22T14:47:37.020Z,99898.34
2023-01-22T14:50:04.633Z,99886.44
2023-01-22T14:52:31.467Z,99898.34
2023-01-22T14:54:58.297Z,99868.53
2023-01-22T14:57:25.552Z,99910.25
2023-01-22T14:59:52.389Z,99905.16
2023-01-22T15:02:19.390Z,99900.03
2023-01-22T15:04:46.445Z,99908.53
2023-01-22T15:07:13.280Z,99910.28
2023-01-22T15:09:40.825Z,99911.97
2023-01-22T15:12:08.038Z,99894.09
2023-01-22T15:14:34.927Z,99911.06
2023-01-22T15:17:01.711Z,99921.31
2023-01-22T15:19:32.166Z,99928.13
2023-01-22T15:22:03.603Z,99917.09
2023-01-22T15:24:30.447Z,99928.16
2023-01-22T15:26:57.224Z,99932.47
2023-01-22T15:29:24.076Z,99937.53
2023-01-22T15:31:50.961Z,99937.53
2023-01-22T15:34:18.069Z,99921.34
2023-01-22T15:36:45.811Z,99940.09
2023-01-22T15:39:12.617Z,99940.94
2023-01-22T15:41:40.035Z,99932.41
2023-01-22T15:44:07.484Z,99934.06
2023-01-22T15:46:39.890Z,99937.56
2023-01-22T15:49:08.232Z,99916.31
2023-01-22T15:51:36.299Z,99933.38
2023-01-22T15:54:06.764Z,99935.91
2023-01-22T15:56:36.616Z,99939.31
2023-01-22T15:59:05.084Z,99935.88
2023-01-22T16:01:32.164Z,99944.38
2023-01-22T16:04:00.802Z,99946.06
2023-01-22T16:06:30.562Z,99946.91
2023-01-22T16:08:59.304Z,99941.75
2023-01-22T16:11:30.815Z,99934.97
2023-01-22T16:13:59.035Z,99948.59
2023-01-22T16:16:32.283Z,99939.22
2023-01-22T16:19:01.147Z,99940.94
2023-01-22T16:21:28.208Z,99934.97
2023-01-22T16:23:58.609Z,99951.16
2023-01-22T16:26:30.119Z,99945.13
2023-01-22T16:28:59.117Z,99955.38
2023-01-22T16:31:30.170Z,99954.53
2023-01-22T16:34:07.744Z,99955.38
2023-01-22T16:36:34.962Z,99929.84
2023-01-22T16:39:01.841Z,99956.28
2023-01-22T16:41:32.288Z,99961.44
2023-01-22T16:44:12.620Z,99945.31
2023-01-22T16:46:42.996Z,99966.59
2023-01-22T16:49:19.800Z,99957.25
2023-01-22T16:51:53.931Z,99967.41
2023-01-22T16:54:29.680Z,99973.41
2023-01-22T16:57:02.965Z,99976.78
2023-01-22T16:59:32.278Z,99985.38
2023-01-22T17:02:01.104Z,99977.69
2023-01-22T17:04:28.611Z,99960.63
2023-01-22T17:06:58.157Z,99982.78
2023-01-22T17:09:28.482Z,99979.34
2023-01-22T17:12:01.557Z,99987.03
2023-01-22T17:14:30.830Z,99983.63
2023-01-22T17:16:58.896Z,99988.72
2023-01-22T17:19:26.138Z,99992.19
2023-01-22T17:21:55.283Z,99992.22
2023-01-22T17:24:22.619Z,99984.53
2023-01-22T17:26:53.017Z,99994.72
2023-01-22T17:29:20.929Z,99993.06
2023-01-22T17:31:48.630Z,99999.91
2023-01-22T17:34:16.546Z,99989.69
2023-01-22T17:36:43.867Z,99999.91
2023-01-22T17:39:15.961Z,100004.19
2023-01-22T17:41:44.276Z,100005.88
2023-01-22T17:44:12.742Z,100005.03
2023-01-22T17:46:40.160Z,100005.03
2023-01-22T17:49:06.980Z,100005.91
2023-01-22T17:51:35.344Z,100004.19
2023-01-22T17:54:03.950Z,100016.13
2023-01-22T17:56:34.569Z,100009.28
2023-01-22T17:59:04.867Z,100012.72
2023-01-22T18:01:33.560Z,100006.75
2023-01-22T18:04:05.452Z,100012.72
2023-01-22T18:06:33.377Z,100012.72
2023-01-22T18:09:00.835Z,99992.28
2023-01-22T18:11:30.075Z,100018.66
2023-01-22T18:14:04.405Z,100005.03
2023-01-22T18:16:36.311Z,100038.28
2023-01-22T18:19:06.971Z,100017.81
2023-01-22T18:21:35.848Z,100044.31
2023-01-22T18:24:04.640Z,100046.00
2023-01-22T18:26:31.595Z,100049.38
2023-01-22T18:28:59.223Z,100046.00
2023-01-22T18:31:28.414Z,100053.66
2023-01-22T18:34:02.216Z,100051.06
2023-01-22T18:36:34.533Z,100052.78
2023-01-22T18:39:11.411Z,100047.66
2023-01-22T18:41:39.980Z,100053.66
2023-01-22T18:44:08.523Z,100058.81
2023-01-22T18:46:36.891Z,100052.00
2023-01-22T18:49:08.562Z,100057.97
2023-01-22T18:51:35.381Z,100058.00
2023-01-22T18:54:05.151Z,100055.47
2023-01-22T18:56:31.991Z,100059.72
2023-01-22T18:58:59.079Z,100067.38
2023-01-22T19:01:33.410Z,100073.38
2023-01-22T19:04:05.783Z,100051.19
2023-01-22T19:06:36.940Z,100077.63
2023-01-22T19:09:14.110Z,100075.09
2023-01-22T19:11:43.483Z,100081.09
2023-01-22T19:14:15.480Z,100062.31
2023-01-22T19:16:48.135Z,100074.25
2023-01-22T19:19:16.295Z,100088.72
2023-01-22T19:21:47.063Z,100071.69
2023-01-22T19:24:17.651Z,100090.47
2023-01-22T19:26:46.387Z,100093.03
2023-01-22T19:29:19.346Z,100099.00
2023-01-22T19:31:48.415Z,100088.78
2023-01-22T19:34:23.178Z,100088.75
2023-01-22T19:36:56.285Z,100097.28
2023-01-22T19:39:25.393Z,100089.63
2023-01-22T19:41:52.253Z,100082.81
2023-01-22T19:44:19.067Z,100093.03
2023-01-22T19:46:45.907Z,100101.53
2023-01-22T19:49:13.359Z,100101.53
2023-01-22T19:51:40.739Z,100107.50
2023-01-22T19:54:08.780Z,100092.19
2023-01-22T19:56:37.732Z,100103.25
2023-01-22T19:59:11.461Z,100093.03
2023-01-22T20:01:39.301Z,100098.97
2023-01-22T20:04:11.885Z,100099.84
2023-01-22T20:06:39.614Z,100115.22
2023-01-22T20:09:06.465Z,100118.59
2023-01-22T20:11:33.347Z,100106.66
2023-01-22T20:14:00.176Z,100108.38
2023-01-22T20:16:29.172Z,100105.81
2023-01-22T20:18:58.278Z,100108.38
2023-01-22T20:21:26.875Z,100105.81
2023-01-22T20:23:53.656Z,100099.84
2023-01-22T20:26:21.908Z,100105.81
2023-01-22T20:28:49.419Z,100103.25
2023-01-22T20:31:25.369Z,100081.94
2023-01-22T20:33:54.680Z,100114.34
2023-01-22T20:36:22.448Z,100116.91
2023-01-22T20:38:52.703Z,100107.53
2023-01-22T20:41:21.768Z,100108.38
2023-01-22T20:43:49.148Z,100109.22
2023-01-22T20:46:25.099Z,100112.63
2023-01-22T20:48:53.240Z,100112.63
2023-01-22T20:51:25.165Z,100098.13
2023-01-22T20:53:53.538Z,100116.03
2023-01-22T20:56:31.434Z,100122.84
2023-01-22T20:59:11.766Z,100096.44
2023-01-22T21:01:39.445Z,100097.25
2023-01-22T21:04:06.390Z,100121.19
2023-01-22T21:06:35.775Z,100127.97
2023-01-22T21:09:04.681Z,100122.03
2023-01-22T21:11:34.523Z,100120.31
2023-01-22T21:14:04.951Z,100118.59
2023-01-22T21:16:35.204Z,100124.56
2023-01-22T21:19:12.944Z,100131.44
2023-01-22T21:21:39.720Z,100134.81
2023-01-22T21:24:07.012Z,100116.06
2023-01-22T21:26:33.821Z,100117.75
2023-01-22T21:29:10.420Z,100129.69
2023-01-22T21:31:37.788Z,100127.13
2023-01-22T21:34:07.769Z,100134.81
2023-01-22T21:36:38.590Z,100120.31
2023-01-22T21:39:09.648Z,100139.09
2023-01-22T21:41:38.081Z,100134.84
2023-01-22T21:44:37.966Z,100145.06
2023-01-22T21:47:05.280Z,100140.78
2023-01-22T21:49:34.743Z,100138.22
2023-01-22T21:52:05.609Z,100141.63
2023-01-22T21:54:39.351Z,100133.97
2023-01-22T21:57:07.754Z,100139.06
2023-01-22T21:59:36.731Z,100138.22
2023-01-22T22:02:04.878Z,100146.75
2023-01-22T22:04:31.666Z,100135.69
2023-01-22T22:06:58.730Z,100107.50
2023-01-22T22:09:28.362Z,100154.44
2023-01-22T22:12:00.715Z,100157.84
2023-01-22T22:14:27.542Z,100152.72
2023-01-22T22:16:54.720Z,100124.59
2023-01-22T22:19:22.872Z,100152.72
2023-01-22T22:21:50.991Z,100152.72
2023-01-22T22:24:19.298Z,100151.03
2023-01-22T22:26:46.160Z,100158.72
2023-01-22T22:29:12.956Z,100122.00
2023-01-22T22:31:39.774Z,100170.66
2023-01-22T22:34:06.841Z,100132.25
2023-01-22T22:36:34.313Z,100155.28
2023-01-22T22:39:02.066Z,100164.69
2023-01-22T22:41:33.058Z,100156.16
2023-01-22T22:43:59.836Z,100175.78
2023-01-22T22:46:32.748Z,100166.41
2023-01-22T22:49:01.385Z,100165.53
2023-01-22T22:51:32.323Z,100168.97
2023-01-22T22:54:02.834Z,100165.53
2023-01-22T22:56:30.976Z,100153.59
2023-01-22T22:59:00.742Z,100173.22
2023-01-22T23:01:28.839Z,100166.41
2023-01-22T23:03:55.830Z,100175.78
2023-01-22T23:06:29.419Z,100175.78
2023-01-22T23:08:58.177Z,100174.06
2023-01-22T23:11:32.557Z,100174.91
2023-01-22T23:14:03.526Z,100177.50
2023-01-22T23:16:34.341Z,100175.78
2023-01-22T23:19:05.221Z,100153.59
2023-01-22T23:21:35.062Z,100163.00
2023-01-22T23:24:02.478Z,100168.13
2023-01-22T23:26:30.523Z,100157.84
2023-01-22T23:29:03.704Z,100173.25
2023-01-22T23:31:33.991Z,100175.78
2023-01-22T23:34:03.375Z,100136.53
2023-01-22T23:36:34.986Z,100166.41
2023-01-22T23:39:03.622Z,100163.84
2023-01-22T23:41:30.555Z,100130.56
2023-01-22T23:43:57.321Z,100114.34
2023-01-22T23:46:27.934Z,100159.56
2023-01-22T23:48:57.081Z,100157.84
2023-01-22T23:51:24.874Z,100132.25
2023-01-22T23:53:53.075Z,100151.91
2023-01-22T23:56:27.072Z,100147.63
2023-01-22T23:58:55.578Z,100145.06
